sensor_id;sensor_type;location;lat;lon;timestamp;pressure;altitude;pressure_sealevel;temperature;humidity
12969;BME280;6549;53.128;8.182;2023-08-12T00:01:42;101488.31;;;20.66;100.00
12969;BME280;6549;53.128;8.182;2023-08-12T00:04:42;101474.78;;;20.64;100.00
12969;BME280;6549;53.128;8.182;2023-08-12T00:07:43;101471.56;;;20.66;100.00
12969;BME280;6549;53.128;8.182;2023-08-12T00:10:43;101478.00;;;20.62;100.00
12969;BME280;6549;53.128;8.182;2023-08-12T00:13:43;101476.00;;;20.47;100.00
12969;BME280;6549;53.128;8.182;2023-08-12T00:16:44;101473.72;;;20.42;100.00
12969;BME280;6549;53.128;8.182;2023-08-12T00:19:44;101476.78;;;20.47;100.00
12969;BME280;6549;53.128;8.182;2023-08-12T00:22:44;101482.38;;;20.47;100.00
12969;BME280;6549;53.128;8.182;2023-08-12T00:25:45;101495.91;;;20.49;100.00
12969;BME280;6549;53.128;8.182;2023-08-12T00:28:48;101503.03;;;20.50;100.00
12969;BME280;6549;53.128;8.182;2023-08-12T00:31:49;101507.09;;;20.49;100.00
12969;BME280;6549;53.128;8.182;2023-08-12T00:34:49;101505.41;;;20.51;100.00
12969;BME280;6549;53.128;8.182;2023-08-12T00:37:49;101509.41;;;20.50;100.00
12969;BME280;6549;53.128;8.182;2023-08-12T00:40:50;101500.00;;;20.44;100.00
12969;BME280;6549;53.128;8.182;2023-08-12T00:43:50;101505.75;;;20.37;100.00
12969;BME280;6549;53.128;8.182;2023-08-12T00:46:50;101507.09;;;20.29;100.00
12969;BME280;6549;53.128;8.182;2023-08-12T00:49:51;101499.56;;;20.30;100.00
12969;BME280;6549;53.128;8.182;2023-08-12T00:52:51;101505.97;;;20.27;100.00
12969;BME280;6549;53.128;8.182;2023-08-12T00:55:52;101496.81;;;20.26;100.00
12969;BME280;6549;53.128;8.182;2023-08-12T00:58:53;101502.03;;;20.24;100.00
12969;BME280;6549;53.128;8.182;2023-08-12T01:01:53;101518.78;;;20.24;100.00
12969;BME280;6549;53.128;8.182;2023-08-12T01:04:54;101522.00;;;20.23;100.00
12969;BME280;6549;53.128;8.182;2023-08-12T01:07:54;101524.78;;;20.23;100.00
12969;BME280;6549;53.128;8.182;2023-08-12T01:11:03;101523.66;;;20.20;100.00
12969;BME280;6549;53.128;8.182;2023-08-12T01:14:27;101509.28;;;20.22;100.00
12969;BME280;6549;53.128;8.182;2023-08-12T01:17:29;101521.38;;;20.15;100.00
12969;BME280;6549;53.128;8.182;2023-08-12T01:20:32;101527.03;;;20.11;100.00
12969;BME280;6549;53.128;8.182;2023-08-12T01:23:33;101527.84;;;20.12;100.00
12969;BME280;6549;53.128;8.182;2023-08-12T01:26:33;101535.84;;;20.10;100.00
12969;BME280;6549;53.128;8.182;2023-08-12T01:29:36;101524.75;;;20.06;100.00
12969;BME280;6549;53.128;8.182;2023-08-12T01:32:49;101524.06;;;20.02;100.00
12969;BME280;6549;53.128;8.182;2023-08-12T01:36:02;101526.63;;;19.93;100.00
12969;BME280;6549;53.128;8.182;2023-08-12T01:39:08;101525.94;;;19.89;100.00
12969;BME280;6549;53.128;8.182;2023-08-12T01:42:10;101529.13;;;19.88;100.00
12969;BME280;6549;53.128;8.182;2023-08-12T01:45:11;101513.97;;;19.89;100.00
12969;BME280;6549;53.128;8.182;2023-08-12T01:48:11;101524.00;;;19.86;100.00
12969;BME280;6549;53.128;8.182;2023-08-12T01:51:11;101512.16;;;19.82;100.00
12969;BME280;6549;53.128;8.182;2023-08-12T01:54:12;101509.00;;;19.80;100.00
12969;BME280;6549;53.128;8.182;2023-08-12T01:57:12;101494.25;;;19.80;100.00
12969;BME280;6549;53.128;8.182;2023-08-12T02:00:13;101484.88;;;19.70;100.00
12969;BME280;6549;53.128;8.182;2023-08-12T02:03:13;101492.03;;;19.71;100.00
12969;BME280;6549;53.128;8.182;2023-08-12T02:06:13;101484.06;;;19.73;100.00
12969;BME280;6549;53.128;8.182;2023-08-12T02:09:13;101483.25;;;19.72;100.00
12969;BME280;6549;53.128;8.182;2023-08-12T02:12:14;101476.03;;;19.75;100.00
12969;BME280;6549;53.128;8.182;2023-08-12T02:15:14;101469.75;;;19.71;100.00
12969;BME280;6549;53.128;8.182;2023-08-12T02:18:15;101456.75;;;19.64;100.00
12969;BME280;6549;53.128;8.182;2023-08-12T02:21:15;101454.59;;;19.52;100.00
12969;BME280;6549;53.128;8.182;2023-08-12T02:24:15;101457.53;;;19.45;100.00
12969;BME280;6549;53.128;8.182;2023-08-12T02:27:16;101445.22;;;19.43;100.00
12969;BME280;6549;53.128;8.182;2023-08-12T02:30:16;101440.88;;;19.42;100.00
12969;BME280;6549;53.128;8.182;2023-08-12T02:33:16;101431.78;;;19.38;100.00
12969;BME280;6549;53.128;8.182;2023-08-12T02:36:17;101416.94;;;19.24;100.00
12969;BME280;6549;53.128;8.182;2023-08-12T02:39:17;101422.13;;;19.22;100.00
12969;BME280;6549;53.128;8.182;2023-08-12T02:42:17;101423.72;;;19.23;100.00
12969;BME280;6549;53.128;8.182;2023-08-12T02:45:18;101411.00;;;19.22;100.00
12969;BME280;6549;53.128;8.182;2023-08-12T02:48:18;101421.44;;;19.18;100.00
12969;BME280;6549;53.128;8.182;2023-08-12T02:51:18;101421.44;;;19.18;100.00
12969;BME280;6549;53.128;8.182;2023-08-12T02:54:19;101419.06;;;19.17;100.00
12969;BME280;6549;53.128;8.182;2023-08-12T02:57:19;101410.34;;;19.15;100.00
12969;BME280;6549;53.128;8.182;2023-08-12T03:00:20;101416.75;;;19.12;100.00
12969;BME280;6549;53.128;8.182;2023-08-12T03:03:20;101408.38;;;19.15;100.00
12969;BME280;6549;53.128;8.182;2023-08-12T03:06:21;101413.44;;;19.20;100.00
12969;BME280;6549;53.128;8.182;2023-08-12T03:09:21;101411.84;;;19.19;100.00
12969;BME280;6549;53.128;8.182;2023-08-12T03:12:22;101410.28;;;19.18;100.00
12969;BME280;6549;53.128;8.182;2023-08-12T03:15:22;101411.50;;;19.17;100.00
12969;BME280;6549;53.128;8.182;2023-08-12T03:18:23;101403.91;;;19.18;100.00
12969;BME280;6549;53.128;8.182;2023-08-12T03:21:23;101409.41;;;19.21;100.00
12969;BME280;6549;53.128;8.182;2023-08-12T03:24:23;101406.78;;;19.14;100.00
12969;BME280;6549;53.128;8.182;2023-08-12T03:27:24;101397.34;;;19.08;100.00
12969;BME280;6549;53.128;8.182;2023-08-12T03:30:24;101393.00;;;19.07;100.00
12969;BME280;6549;53.128;8.182;2023-08-12T03:33:24;101389.69;;;19.12;100.00
12969;BME280;6549;53.128;8.182;2023-08-12T03:36:25;101390.84;;;19.15;100.00
12969;BME280;6549;53.128;8.182;2023-08-12T03:39:25;101386.19;;;19.08;100.00
12969;BME280;6549;53.128;8.182;2023-08-12T03:42:25;101377.50;;;19.06;100.00
12969;BME280;6549;53.128;8.182;2023-08-12T03:45:26;101370.97;;;19.13;100.00
12969;BME280;6549;53.128;8.182;2023-08-12T03:48:26;101369.06;;;19.10;100.00
12969;BME280;6549;53.128;8.182;2023-08-12T03:51:26;101377.06;;;19.08;100.00
12969;BME280;6549;53.128;8.182;2023-08-12T03:54:27;101380.69;;;19.05;100.00
12969;BME280;6549;53.128;8.182;2023-08-12T03:57:27;101380.28;;;19.06;100.00
12969;BME280;6549;53.128;8.182;2023-08-12T04:00:28;101380.69;;;19.05;100.00
12969;BME280;6549;53.128;8.182;2023-08-12T04:03:28;101374.00;;;19.02;100.00
12969;BME280;6549;53.128;8.182;2023-08-12T04:06:28;101374.13;;;18.95;100.00
12969;BME280;6549;53.128;8.182;2023-08-12T04:09:29;101382.47;;;18.95;100.00
12969;BME280;6549;53.128;8.182;2023-08-12T04:12:29;101380.06;;;18.97;100.00
12969;BME280;6549;53.128;8.182;2023-08-12T04:15:29;101378.84;;;18.98;100.00
12969;BME280;6549;53.128;8.182;2023-08-12T04:18:30;101380.38;;;19.03;100.00
12969;BME280;6549;53.128;8.182;2023-08-12T04:21:30;101375.63;;;19.00;100.00
12969;BME280;6549;53.128;8.182;2023-08-12T04:24:30;101377.63;;;18.99;100.00
12969;BME280;6549;53.128;8.182;2023-08-12T04:27:31;101373.63;;;19.00;100.00
12969;BME280;6549;53.128;8.182;2023-08-12T04:30:31;101371.72;;;18.97;100.00
12969;BME280;6549;53.128;8.182;2023-08-12T04:33:31;101372.44;;;19.01;100.00
12969;BME280;6549;53.128;8.182;2023-08-12T04:36:32;101374.00;;;19.02;100.00
12969;BME280;6549;53.128;8.182;2023-08-12T04:39:32;101371.56;;;19.04;100.00
12969;BME280;6549;53.128;8.182;2023-08-12T04:42:33;101373.56;;;19.04;100.00
12969;BME280;6549;53.128;8.182;2023-08-12T04:45:33;101374.00;;;19.02;100.00
12969;BME280;6549;53.128;8.182;2023-08-12T04:48:34;101377.22;;;19.01;100.00
12969;BME280;6549;53.128;8.182;2023-08-12T04:51:34;101363.28;;;19.01;100.00
12969;BME280;6549;53.128;8.182;2023-08-12T04:54:34;101377.56;;;19.03;100.00
12969;BME280;6549;53.128;8.182;2023-08-12T04:57:35;101365.19;;;19.04;100.00
12969;BME280;6549;53.128;8.182;2023-08-12T05:00:35;101366.78;;;19.05;100.00
12969;BME280;6549;53.128;8.182;2023-08-12T05:03:35;101362.00;;;19.05;100.00
12969;BME280;6549;53.128;8.182;2023-08-12T05:06:36;101365.56;;;19.06;100.00
12969;BME280;6549;53.128;8.182;2023-08-12T05:09:36;101361.91;;;19.09;100.00
12969;BME280;6549;53.128;8.182;2023-08-12T05:12:36;101346.28;;;19.15;100.00
12969;BME280;6549;53.128;8.182;2023-08-12T05:15:37;101344.91;;;19.23;100.00
12969;BME280;6549;53.128;8.182;2023-08-12T05:18:37;101346.25;;;19.35;100.00
12969;BME280;6549;53.128;8.182;2023-08-12T05:21:37;101336.53;;;19.43;100.00
12969;BME280;6549;53.128;8.182;2023-08-12T05:24:37;101345.25;;;19.45;100.00
12969;BME280;6549;53.128;8.182;2023-08-12T05:27:38;101350.75;;;19.48;100.00
12969;BME280;6549;53.128;8.182;2023-08-12T05:30:38;101350.53;;;19.59;100.00
12969;BME280;6549;53.128;8.182;2023-08-12T05:33:39;101340.41;;;19.65;100.00
12969;BME280;6549;53.128;8.182;2023-08-12T05:36:39;101341.91;;;19.69;100.00
12969;BME280;6549;53.128;8.182;2023-08-12T05:39:39;101336.78;;;19.68;100.00
12969;BME280;6549;53.128;8.182;2023-08-12T05:42:40;101339.66;;;19.64;100.00
12969;BME280;6549;53.128;8.182;2023-08-12T05:45:40;101347.84;;;19.71;100.00
12969;BME280;6549;53.128;8.182;2023-08-12T05:48:40;101340.69;;;19.70;100.00
12969;BME280;6549;53.128;8.182;2023-08-12T05:51:41;101340.09;;;19.79;100.00
12969;BME280;6549;53.128;8.182;2023-08-12T05:54:41;101335.06;;;19.90;100.00
12969;BME280;6549;53.128;8.182;2023-08-12T05:57:41;101335.66;;;19.98;100.00
12969;BME280;6549;53.128;8.182;2023-08-12T06:00:42;101334.78;;;20.01;100.00
12969;BME280;6549;53.128;8.182;2023-08-12T06:03:45;101323.34;;;20.11;100.00
12969;BME280;6549;53.128;8.182;2023-08-12T06:06:45;101329.28;;;20.13;100.00
12969;BME280;6549;53.128;8.182;2023-08-12T06:09:46;101333.91;;;20.20;100.00
12969;BME280;6549;53.128;8.182;2023-08-12T06:12:46;101336.50;;;20.27;100.00
12969;BME280;6549;53.128;8.182;2023-08-12T06:15:46;101329.47;;;20.39;100.00
12969;BME280;6549;53.128;8.182;2023-08-12T06:18:47;101332.06;;;20.46;100.00
12969;BME280;6549;53.128;8.182;2023-08-12T06:21:47;101334.84;;;20.46;100.00
12969;BME280;6549;53.128;8.182;2023-08-12T06:24:47;101336.06;;;20.45;100.00
12969;BME280;6549;53.128;8.182;2023-08-12T06:27:48;101334.50;;;20.44;100.00
12969;BME280;6549;53.128;8.182;2023-08-12T06:30:48;101324.72;;;20.36;100.00
12969;BME280;6549;53.128;8.182;2023-08-12T06:33:48;101317.59;;;20.35;100.00
12969;BME280;6549;53.128;8.182;2023-08-12T06:36:49;101312.59;;;20.42;100.00
12969;BME280;6549;53.128;8.182;2023-08-12T06:39:49;101315.84;;;20.41;100.00
12969;BME280;6549;53.128;8.182;2023-08-12T06:42:49;101328.47;;;20.45;100.00
12969;BME280;6549;53.128;8.182;2023-08-12T06:45:50;101319.66;;;20.47;100.00
12969;BME280;6549;53.128;8.182;2023-08-12T06:48:50;101316.00;;;20.50;100.00
12969;BME280;6549;53.128;8.182;2023-08-12T06:51:50;101303.50;;;20.54;100.00
12969;BME280;6549;53.128;8.182;2023-08-12T06:54:51;101308.81;;;20.65;100.00
12969;BME280;6549;53.128;8.182;2023-08-12T06:57:51;101311.06;;;20.70;100.00
12969;BME280;6549;53.128;8.182;2023-08-12T07:00:51;101293.75;;;20.75;100.00
12969;BME280;6549;53.128;8.182;2023-08-12T07:03:53;101298.06;;;20.92;100.00
12969;BME280;6549;53.128;8.182;2023-08-12T07:06:53;101294.78;;;20.94;100.00
12969;BME280;6549;53.128;8.182;2023-08-12T07:09:54;101299.59;;;20.93;100.00
12969;BME280;6549;53.128;8.182;2023-08-12T07:12:54;101297.16;;;20.95;100.00
12969;BME280;6549;53.128;8.182;2023-08-12T07:15:54;101290.91;;;21.04;100.00
12969;BME280;6549;53.128;8.182;2023-08-12T07:18:55;101282.41;;;21.07;100.00
12969;BME280;6549;53.128;8.182;2023-08-12T07:21:55;101290.38;;;21.09;100.00
12969;BME280;6549;53.128;8.182;2023-08-12T07:24:55;101290.63;;;21.15;100.00
12969;BME280;6549;53.128;8.182;2023-08-12T07:27:56;101277.28;;;21.06;100.00
12969;BME280;6549;53.128;8.182;2023-08-12T07:30:56;101285.53;;;20.84;100.00
12969;BME280;6549;53.128;8.182;2023-08-12T07:33:56;101282.22;;;21.02;100.00
12969;BME280;6549;53.128;8.182;2023-08-12T07:36:57;101285.88;;;21.12;100.00
12969;BME280;6549;53.128;8.182;2023-08-12T07:39:57;101280.44;;;21.21;100.00
12969;BME280;6549;53.128;8.182;2023-08-12T07:42:57;101279.34;;;21.31;100.00
12969;BME280;6549;53.128;8.182;2023-08-12T07:45:58;101290.88;;;21.45;100.00
12969;BME280;6549;53.128;8.182;2023-08-12T07:48:58;101285.50;;;21.51;100.00
12969;BME280;6549;53.128;8.182;2023-08-12T07:51:59;101285.59;;;21.60;100.00
12969;BME280;6549;53.128;8.182;2023-08-12T07:54:59;101287.72;;;21.56;100.00
12969;BME280;6549;53.128;8.182;2023-08-12T07:57:59;101290.22;;;21.54;100.00
12969;BME280;6549;53.128;8.182;2023-08-12T08:00:59;101290.53;;;21.56;100.00
12969;BME280;6549;53.128;8.182;2023-08-12T08:04:00;101284.50;;;21.58;100.00
12969;BME280;6549;53.128;8.182;2023-08-12T08:07:00;101278.47;;;21.59;100.00
12969;BME280;6549;53.128;8.182;2023-08-12T08:10:00;101275.44;;;21.54;100.00
12969;BME280;6549;53.128;8.182;2023-08-12T08:13:01;101282.72;;;21.64;100.00
12969;BME280;6549;53.128;8.182;2023-08-12T08:16:01;101277.97;;;21.73;100.00
12969;BME280;6549;53.128;8.182;2023-08-12T08:19:02;101286.16;;;21.80;100.00
12969;BME280;6549;53.128;8.182;2023-08-12T08:22:02;101275.63;;;21.84;100.00
12969;BME280;6549;53.128;8.182;2023-08-12T08:25:03;101261.28;;;21.82;100.00
12969;BME280;6549;53.128;8.182;2023-08-12T08:28:04;101278.06;;;21.82;100.00
12969;BME280;6549;53.128;8.182;2023-08-12T08:31:04;101276.63;;;21.78;100.00
12969;BME280;6549;53.128;8.182;2023-08-12T08:34:05;101277.41;;;21.78;100.00
12969;BME280;6549;53.128;8.182;2023-08-12T08:37:06;101264.88;;;21.83;100.00
12969;BME280;6549;53.128;8.182;2023-08-12T08:40:07;101261.94;;;21.86;100.00
12969;BME280;6549;53.128;8.182;2023-08-12T08:43:08;101263.53;;;21.87;100.00
12969;BME280;6549;53.128;8.182;2023-08-12T08:46:08;101261.28;;;21.82;100.00
12969;BME280;6549;53.128;8.182;2023-08-12T08:49:10;101259.63;;;21.85;100.00
12969;BME280;6549;53.128;8.182;2023-08-12T08:52:11;101263.22;;;21.85;100.00
12969;BME280;6549;53.128;8.182;2023-08-12T08:55:12;101268.13;;;21.81;100.00
12969;BME280;6549;53.128;8.182;2023-08-12T08:58:14;101262.63;;;21.78;100.00
12969;BME280;6549;53.128;8.182;2023-08-12T09:01:15;101261.97;;;21.74;100.00
12969;BME280;6549;53.128;8.182;2023-08-12T09:04:18;101261.22;;;21.48;100.00
12969;BME280;6549;53.128;8.182;2023-08-12T09:07:21;101255.28;;;21.33;100.00
12969;BME280;6549;53.128;8.182;2023-08-12T09:10:23;101232.72;;;21.28;100.00
12969;BME280;6549;53.128;8.182;2023-08-12T09:13:24;101231.41;;;21.20;100.00
12969;BME280;6549;53.128;8.182;2023-08-12T09:16:24;101231.59;;;21.13;100.00
12969;BME280;6549;53.128;8.182;2023-08-12T09:19:24;101222.28;;;21.03;100.00
12969;BME280;6549;53.128;8.182;2023-08-12T09:22:25;101231.00;;;21.05;100.00
12969;BME280;6549;53.128;8.182;2023-08-12T09:25:27;101240.19;;;21.05;100.00
12969;BME280;6549;53.128;8.182;2023-08-12T09:28:29;101246.22;;;21.04;100.00
12969;BME280;6549;53.128;8.182;2023-08-12T09:31:30;101238.63;;;21.04;100.00
12969;BME280;6549;53.128;8.182;2023-08-12T09:34:32;101229.13;;;21.02;100.00
12969;BME280;6549;53.128;8.182;2023-08-12T09:37:32;101218.38;;;21.00;100.00
12969;BME280;6549;53.128;8.182;2023-08-12T09:40:34;101206.66;;;21.05;100.00
12969;BME280;6549;53.128;8.182;2023-08-12T09:43:34;101198.69;;;20.91;100.00
12969;BME280;6549;53.128;8.182;2023-08-12T09:46:35;101213.09;;;20.90;100.00
12969;BME280;6549;53.128;8.182;2023-08-12T09:49:37;101215.22;;;20.86;100.00
12969;BME280;6549;53.128;8.182;2023-08-12T09:52:37;101213.56;;;20.88;100.00
12969;BME280;6549;53.128;8.182;2023-08-12T09:55:38;101205.19;;;20.88;100.00
12969;BME280;6549;53.128;8.182;2023-08-12T09:58:39;101206.19;;;20.94;100.00
12969;BME280;6549;53.128;8.182;2023-08-12T10:01:41;101202.81;;;20.74;100.00
12969;BME280;6549;53.128;8.182;2023-08-12T10:04:45;101203.72;;;20.71;100.00
12969;BME280;6549;53.128;8.182;2023-08-12T10:07:47;101209.06;;;20.66;100.00
12969;BME280;6549;53.128;8.182;2023-08-12T10:10:47;101211.06;;;20.65;100.00
12969;BME280;6549;53.128;8.182;2023-08-12T10:13:48;101209.84;;;20.66;100.00
12969;BME280;6549;53.128;8.182;2023-08-12T10:16:48;101205.81;;;20.67;100.00
12969;BME280;6549;53.128;8.182;2023-08-12T10:19:56;101210.84;;;20.72;100.00
12969;BME280;6549;53.128;8.182;2023-08-12T10:22:59;101195.78;;;20.82;100.00
12969;BME280;6549;53.128;8.182;2023-08-12T10:25:59;101199.38;;;20.95;100.00
12969;BME280;6549;53.128;8.182;2023-08-12T10:29:00;101195.25;;;21.00;100.00
12969;BME280;6549;53.128;8.182;2023-08-12T10:32:02;101204.72;;;21.02;100.00
12969;BME280;6549;53.128;8.182;2023-08-12T10:35:02;101200.72;;;21.03;100.00
12969;BME280;6549;53.128;8.182;2023-08-12T10:38:05;101205.44;;;21.06;100.00
12969;BME280;6549;53.128;8.182;2023-08-12T10:41:22;101191.09;;;21.04;100.00
12969;BME280;6549;53.128;8.182;2023-08-12T10:44:29;101193.13;;;21.04;100.00
12969;BME280;6549;53.128;8.182;2023-08-12T10:47:47;101188.66;;;21.06;100.00
12969;BME280;6549;53.128;8.182;2023-08-12T10:50:51;101181.50;;;21.05;100.00
12969;BME280;6549;53.128;8.182;2023-08-12T10:53:51;101180.72;;;20.92;100.00
12969;BME280;6549;53.128;8.182;2023-08-12T10:57:04;101188.31;;;21.04;100.00
12969;BME280;6549;53.128;8.182;2023-08-12T11:00:19;101174.47;;;21.01;100.00
12969;BME280;6549;53.128;8.182;2023-08-12T11:03:23;101179.16;;;21.04;100.00
12969;BME280;6549;53.128;8.182;2023-08-12T11:06:27;101174.09;;;21.12;100.00
12969;BME280;6549;53.128;8.182;2023-08-12T11:09:28;101173.16;;;21.18;100.00
12969;BME280;6549;53.128;8.182;2023-08-12T11:12:33;101157.56;;;21.30;100.00
12969;BME280;6549;53.128;8.182;2023-08-12T11:15:38;101157.56;;;21.30;100.00
12969;BME280;6549;53.128;8.182;2023-08-12T11:18:41;101162.97;;;21.24;100.00
12969;BME280;6549;53.128;8.182;2023-08-12T11:21:42;101154.78;;;21.30;100.00
12969;BME280;6549;53.128;8.182;2023-08-12T11:24:43;101149.75;;;21.25;100.00
12969;BME280;6549;53.128;8.182;2023-08-12T11:27:45;101137.78;;;21.37;100.00
12969;BME280;6549;53.128;8.182;2023-08-12T11:30:46;101134.53;;;21.38;100.00
12969;BME280;6549;53.128;8.182;2023-08-12T11:33:46;101119.19;;;21.43;100.00
12969;BME280;6549;53.128;8.182;2023-08-12T11:36:48;101128.63;;;21.71;100.00
12969;BME280;6549;53.128;8.182;2023-08-12T11:39:52;101119.59;;;21.88;100.00
12969;BME280;6549;53.128;8.182;2023-08-12T11:42:53;101122.50;;;21.98;100.00
12969;BME280;6549;53.128;8.182;2023-08-12T11:45:55;101115.75;;;21.73;100.00
12969;BME280;6549;53.128;8.182;2023-08-12T11:48:56;101120.44;;;21.76;100.00
12969;BME280;6549;53.128;8.182;2023-08-12T11:51:56;101101.53;;;21.80;100.00
12969;BME280;6549;53.128;8.182;2023-08-12T11:54:57;101102.44;;;21.77;100.00
12969;BME280;6549;53.128;8.182;2023-08-12T11:57:57;101095.72;;;21.75;100.00
12969;BME280;6549;53.128;8.182;2023-08-12T12:00:58;101091.25;;;21.77;100.00
12969;BME280;6549;53.128;8.182;2023-08-12T12:04:01;101088.63;;;21.83;100.00
12969;BME280;6549;53.128;8.182;2023-08-12T12:07:03;101078.38;;;22.02;100.00
12969;BME280;6549;53.128;8.182;2023-08-12T12:10:07;101076.16;;;21.97;100.00
12969;BME280;6549;53.128;8.182;2023-08-12T12:13:07;101068.88;;;21.77;100.00
12969;BME280;6549;53.128;8.182;2023-08-12T12:16:10;101070.41;;;21.78;100.00
12969;BME280;6549;53.128;8.182;2023-08-12T12:19:18;101058.13;;;21.76;100.00
12969;BME280;6549;53.128;8.182;2023-08-12T12:22:19;101042.84;;;21.89;100.00
12969;BME280;6549;53.128;8.182;2023-08-12T12:25:19;101052.59;;;22.07;100.00
12969;BME280;6549;53.128;8.182;2023-08-12T12:28:19;101048.69;;;22.04;100.00
12969;BME280;6549;53.128;8.182;2023-08-12T12:31:20;101054.13;;;21.99;100.00
12969;BME280;6549;53.128;8.182;2023-08-12T12:34:20;101050.13;;;22.09;100.00
12969;BME280;6549;53.128;8.182;2023-08-12T12:37:20;101026.41;;;22.22;100.00
12969;BME280;6549;53.128;8.182;2023-08-12T12:40:21;101025.75;;;22.18;100.00
12969;BME280;6549;53.128;8.182;2023-08-12T12:43:21;101020.03;;;22.22;100.00
12969;BME280;6549;53.128;8.182;2023-08-12T12:46:21;101023.69;;;22.10;100.00
12969;BME280;6549;53.128;8.182;2023-08-12T12:49:24;101006.56;;;21.99;100.00
12969;BME280;6549;53.128;8.182;2023-08-12T12:52:24;100998.22;;;21.86;100.00
12969;BME280;6549;53.128;8.182;2023-08-12T12:55:24;100998.06;;;21.89;100.00
12969;BME280;6549;53.128;8.182;2023-08-12T12:58:25;101004.06;;;22.01;100.00
12969;BME280;6549;53.128;8.182;2023-08-12T13:01:25;100993.41;;;22.17;100.00
12969;BME280;6549;53.128;8.182;2023-08-12T13:04:25;100993.25;;;22.12;100.00
12969;BME280;6549;53.128;8.182;2023-08-12T13:07:26;100991.69;;;22.11;100.00
12969;BME280;6549;53.128;8.182;2023-08-12T13:10:26;100988.53;;;22.09;100.00
12969;BME280;6549;53.128;8.182;2023-08-12T13:13:26;100987.13;;;22.04;100.00
12969;BME280;6549;53.128;8.182;2023-08-12T13:16:27;100987.41;;;21.75;100.00
12969;BME280;6549;53.128;8.182;2023-08-12T13:19:27;100989.94;;;21.61;100.00
12969;BME280;6549;53.128;8.182;2023-08-12T13:22:27;101017.06;;;21.51;100.00
12969;BME280;6549;53.128;8.182;2023-08-12T13:25:30;101037.03;;;21.40;100.00
12969;BME280;6549;53.128;8.182;2023-08-12T13:28:31;101057.50;;;21.37;100.00
12969;BME280;6549;53.128;8.182;2023-08-12T13:31:31;101053.94;;;21.12;100.00
12969;BME280;6549;53.128;8.182;2023-08-12T13:34:32;101060.72;;;20.89;100.00
12969;BME280;6549;53.128;8.182;2023-08-12T13:37:32;101066.41;;;20.85;100.00
12969;BME280;6549;53.128;8.182;2023-08-12T13:40:33;101077.69;;;21.20;100.00
12969;BME280;6549;53.128;8.182;2023-08-12T13:43:33;101069.88;;;21.49;100.00
12969;BME280;6549;53.128;8.182;2023-08-12T13:46:33;101068.19;;;21.73;100.00
12969;BME280;6549;53.128;8.182;2023-08-12T13:49:34;101066.91;;;22.30;100.00
12969;BME280;6549;53.128;8.182;2023-08-12T13:52:34;101084.84;;;22.73;100.00
12969;BME280;6549;53.128;8.182;2023-08-12T13:55:34;101081.72;;;23.29;100.00
12969;BME280;6549;53.128;8.182;2023-08-12T13:58:35;101092.69;;;23.54;100.00
12969;BME280;6549;53.128;8.182;2023-08-12T14:01:35;101098.47;;;23.69;100.00
12969;BME280;6549;53.128;8.182;2023-08-12T14:04:36;101101.75;;;23.67;100.00
12969;BME280;6549;53.128;8.182;2023-08-12T14:07:37;101108.59;;;23.57;100.00
12969;BME280;6549;53.128;8.182;2023-08-12T14:10:37;101108.53;;;23.30;100.00
12969;BME280;6549;53.128;8.182;2023-08-12T14:13:37;101112.25;;;23.18;100.00
12969;BME280;6549;53.128;8.182;2023-08-12T14:16:38;101120.78;;;23.05;100.00
12969;BME280;6549;53.128;8.182;2023-08-12T14:19:38;101123.72;;;23.02;100.00
12969;BME280;6549;53.128;8.182;2023-08-12T14:22:38;101124.31;;;22.88;100.00
12969;BME280;6549;53.128;8.182;2023-08-12T14:25:39;101130.91;;;22.72;100.00
12969;BME280;6549;53.128;8.182;2023-08-12T14:28:39;101132.75;;;22.66;100.00
12969;BME280;6549;53.128;8.182;2023-08-12T14:31:40;101149.16;;;22.55;100.00
12969;BME280;6549;53.128;8.182;2023-08-12T14:34:40;101144.19;;;22.59;100.00
12969;BME280;6549;53.128;8.182;2023-08-12T14:37:41;101140.03;;;22.63;100.00
12969;BME280;6549;53.128;8.182;2023-08-12T14:40:41;101144.78;;;23.15;100.00
12969;BME280;6549;53.128;8.182;2023-08-12T14:43:41;101130.34;;;23.35;100.00
12969;BME280;6549;53.128;8.182;2023-08-12T14:46:42;101131.50;;;23.65;100.00
12969;BME280;6549;53.128;8.182;2023-08-12T14:49:42;101122.31;;;23.83;100.00
12969;BME280;6549;53.128;8.182;2023-08-12T14:52:42;101133.38;;;23.95;100.00
12969;BME280;6549;53.128;8.182;2023-08-12T14:55:43;101136.66;;;24.03;100.00
12969;BME280;6549;53.128;8.182;2023-08-12T14:58:43;101137.28;;;23.89;100.00
12969;BME280;6549;53.128;8.182;2023-08-12T15:01:44;101135.41;;;23.77;100.00
12969;BME280;6549;53.128;8.182;2023-08-12T15:04:45;101142.28;;;23.94;100.00
12969;BME280;6549;53.128;8.182;2023-08-12T15:07:46;101135.09;;;24.11;100.00
12969;BME280;6549;53.128;8.182;2023-08-12T15:10:47;101145.84;;;24.31;100.00
12969;BME280;6549;53.128;8.182;2023-08-12T15:13:47;101150.03;;;24.08;100.00
12969;BME280;6549;53.128;8.182;2023-08-12T15:16:47;101145.72;;;23.89;100.00
12969;BME280;6549;53.128;8.182;2023-08-12T15:19:48;101152.22;;;24.13;100.00
12969;BME280;6549;53.128;8.182;2023-08-12T15:22:48;101141.00;;;24.13;100.00
12969;BME280;6549;53.128;8.182;2023-08-12T15:25:48;101139.31;;;23.97;100.00
12969;BME280;6549;53.128;8.182;2023-08-12T15:28:49;101149.13;;;23.75;100.00
12969;BME280;6549;53.128;8.182;2023-08-12T15:31:50;101150.94;;;23.50;100.00
12969;BME280;6549;53.128;8.182;2023-08-12T15:34:50;101142.50;;;23.41;100.00
12969;BME280;6549;53.128;8.182;2023-08-12T15:37:50;101151.81;;;23.29;100.00
12969;BME280;6549;53.128;8.182;2023-08-12T15:40:51;101149.00;;;23.20;100.00
12969;BME280;6549;53.128;8.182;2023-08-12T15:43:51;101149.56;;;23.06;100.00
12969;BME280;6549;53.128;8.182;2023-08-12T15:46:51;101152.03;;;22.95;100.00